sensor_id;sensor_type;location;lat;lon;timestamp;temperature;humidity
9907;DHT22;4992;51.628;6.664;2022-12-01T00:00:43;6.10;99.90
9907;DHT22;4992;51.628;6.664;2022-12-01T00:03:09;6.10;99.90
9907;DHT22;4992;51.628;6.664;2022-12-01T00:05:35;6.10;99.90
9907;DHT22;4992;51.628;6.664;2022-12-01T00:08:01;6.10;99.90
9907;DHT22;4992;51.628;6.664;2022-12-01T00:10:28;6.10;99.90
9907;DHT22;4992;51.628;6.664;2022-12-01T00:12:59;6.00;99.90
9907;DHT22;4992;51.628;6.664;2022-12-01T00:15:26;6.10;99.90
9907;DHT22;4992;51.628;6.664;2022-12-01T00:17:51;6.00;99.90
9907;DHT22;4992;51.628;6.664;2022-12-01T00:20:17;6.00;99.90
9907;DHT22;4992;51.628;6.664;2022-12-01T00:22:47;6.00;99.90
9907;DHT22;4992;51.628;6.664;2022-12-01T00:25:15;6.00;99.90
9907;DHT22;4992;51.628;6.664;2022-12-01T00:27:41;6.00;99.90
9907;DHT22;4992;51.628;6.664;2022-12-01T00:30:09;6.00;99.90
9907;DHT22;4992;51.628;6.664;2022-12-01T00:32:36;5.90;99.90
9907;DHT22;4992;51.628;6.664;2022-12-01T00:35:02;6.00;99.90
9907;DHT22;4992;51.628;6.664;2022-12-01T00:37:32;5.90;99.90
9907;DHT22;4992;51.628;6.664;2022-12-01T00:39:57;5.90;99.90
9907;DHT22;4992;51.628;6.664;2022-12-01T00:42:24;5.90;99.90
9907;DHT22;4992;51.628;6.664;2022-12-01T00:44:49;5.90;99.90
9907;DHT22;4992;51.628;6.664;2022-12-01T00:47:15;5.90;99.90
9907;DHT22;4992;51.628;6.664;2022-12-01T00:49:41;5.90;99.90
9907;DHT22;4992;51.628;6.664;2022-12-01T00:52:07;5.90;99.90
9907;DHT22;4992;51.628;6.664;2022-12-01T00:54:32;5.90;99.90
9907;DHT22;4992;51.628;6.664;2022-12-01T00:56:58;5.90;99.90
9907;DHT22;4992;51.628;6.664;2022-12-01T00:59:24;5.90;99.90
9907;DHT22;4992;51.628;6.664;2022-12-01T01:01:50;5.90;99.90
9907;DHT22;4992;51.628;6.664;2022-12-01T01:04:15;5.90;99.90
9907;DHT22;4992;51.628;6.664;2022-12-01T01:06:41;5.90;99.90
9907;DHT22;4992;51.628;6.664;2022-12-01T01:09:11;5.90;99.90
9907;DHT22;4992;51.628;6.664;2022-12-01T01:11:37;5.90;99.90
9907;DHT22;4992;51.628;6.664;2022-12-01T01:14:03;5.90;99.90
9907;DHT22;4992;51.628;6.664;2022-12-01T01:16:29;5.90;99.90
9907;DHT22;4992;51.628;6.664;2022-12-01T01:18:55;5.90;99.90
9907;DHT22;4992;51.628;6.664;2022-12-01T01:21:22;5.90;99.90
9907;DHT22;4992;51.628;6.664;2022-12-01T01:23:48;5.90;99.90
9907;DHT22;4992;51.628;6.664;2022-12-01T01:26:19;5.90;99.90
9907;DHT22;4992;51.628;6.664;2022-12-01T01:28:46;6.00;99.90
9907;DHT22;4992;51.628;6.664;2022-12-01T01:31:15;6.00;99.90
9907;DHT22;4992;51.628;6.664;2022-12-01T01:33:41;5.90;99.90
9907;DHT22;4992;51.628;6.664;2022-12-01T01:36:07;6.00;99.90
9907;DHT22;4992;51.628;6.664;2022-12-01T01:38:34;5.90;99.90
9907;DHT22;4992;51.628;6.664;2022-12-01T01:41:00;5.90;99.90
9907;DHT22;4992;51.628;6.664;2022-12-01T01:43:58;5.90;99.90
9907;DHT22;4992;51.628;6.664;2022-12-01T01:46:27;6.00;99.90
9907;DHT22;4992;51.628;6.664;2022-12-01T01:48:58;6.00;99.90
9907;DHT22;4992;51.628;6.664;2022-12-01T01:54:02;5.90;99.90
9907;DHT22;4992;51.628;6.664;2022-12-01T01:56:29;5.90;99.90
9907;DHT22;4992;51.628;6.664;2022-12-01T01:58:55;5.90;99.90
9907;DHT22;4992;51.628;6.664;2022-12-01T02:01:21;5.90;99.90
9907;DHT22;4992;51.628;6.664;2022-12-01T02:03:46;5.90;99.90
9907;DHT22;4992;51.628;6.664;2022-12-01T02:06:13;6.00;99.90
9907;DHT22;4992;51.628;6.664;2022-12-01T02:08:39;6.00;99.90
9907;DHT22;4992;51.628;6.664;2022-12-01T02:11:32;5.90;99.90
9907;DHT22;4992;51.628;6.664;2022-12-01T02:14:34;5.90;99.90
9907;DHT22;4992;51.628;6.664;2022-12-01T02:17:27;5.90;99.90
9907;DHT22;4992;51.628;6.664;2022-12-01T02:20:06;5.90;99.90
9907;DHT22;4992;51.628;6.664;2022-12-01T02:22:57;5.90;99.90
9907;DHT22;4992;51.628;6.664;2022-12-01T02:28:53;6.00;99.90
9907;DHT22;4992;51.628;6.664;2022-12-01T02:37:15;5.90;99.90
9907;DHT22;4992;51.628;6.664;2022-12-01T02:42:46;6.00;99.90
9907;DHT22;4992;51.628;6.664;2022-12-01T02:45:26;6.00;99.90
9907;DHT22;4992;51.628;6.664;2022-12-01T02:47:55;6.00;99.90
9907;DHT22;4992;51.628;6.664;2022-12-01T02:50:24;6.00;99.90
9907;DHT22;4992;51.628;6.664;2022-12-01T02:52:52;5.90;99.90
9907;DHT22;4992;51.628;6.664;2022-12-01T02:55:18;5.90;99.90
9907;DHT22;4992;51.628;6.664;2022-12-01T02:57:44;5.90;99.90
9907;DHT22;4992;51.628;6.664;2022-12-01T03:00:10;5.90;99.90
9907;DHT22;4992;51.628;6.664;2022-12-01T03:03:14;5.90;99.90
9907;DHT22;4992;51.628;6.664;2022-12-01T03:05:57;6.00;99.90
9907;DHT22;4992;51.628;6.664;2022-12-01T03:08:39;6.00;99.90
9907;DHT22;4992;51.628;6.664;2022-12-01T03:11:10;6.00;99.90
9907;DHT22;4992;51.628;6.664;2022-12-01T03:13:59;6.00;99.90
9907;DHT22;4992;51.628;6.664;2022-12-01T03:16:52;6.00;99.90
9907;DHT22;4992;51.628;6.664;2022-12-01T03:19:41;5.90;99.90
9907;DHT22;4992;51.628;6.664;2022-12-01T03:22:22;5.90;99.90
9907;DHT22;4992;51.628;6.664;2022-12-01T03:24:52;5.90;99.90
9907;DHT22;4992;51.628;6.664;2022-12-01T03:27:23;5.90;99.90
9907;DHT22;4992;51.628;6.664;2022-12-01T03:29:50;5.90;99.90
9907;DHT22;4992;51.628;6.664;2022-12-01T03:32:31;5.90;99.90
9907;DHT22;4992;51.628;6.664;2022-12-01T03:35:07;5.90;99.90
9907;DHT22;4992;51.628;6.664;2022-12-01T03:37:43;5.80;99.90
9907;DHT22;4992;51.628;6.664;2022-12-01T03:40:14;5.90;99.90
9907;DHT22;4992;51.628;6.664;2022-12-01T03:42:46;5.80;99.90
9907;DHT22;4992;51.628;6.664;2022-12-01T03:45:17;5.80;99.90
9907;DHT22;4992;51.628;6.664;2022-12-01T03:47:44;5.80;99.90
9907;DHT22;4992;51.628;6.664;2022-12-01T03:50:10;5.80;99.90
9907;DHT22;4992;51.628;6.664;2022-12-01T03:52:52;5.90;99.90
9907;DHT22;4992;51.628;6.664;2022-12-01T03:55:26;5.90;99.90
9907;DHT22;4992;51.628;6.664;2022-12-01T04:00:27;5.90;99.90
9907;DHT22;4992;51.628;6.664;2022-12-01T04:03:00;5.90;99.90
9907;DHT22;4992;51.628;6.664;2022-12-01T04:05:30;5.90;99.90
9907;DHT22;4992;51.628;6.664;2022-12-01T04:07:57;5.90;99.90
9907;DHT22;4992;51.628;6.664;2022-12-01T04:10:23;5.90;99.90
9907;DHT22;4992;51.628;6.664;2022-12-01T04:12:48;5.90;99.90
9907;DHT22;4992;51.628;6.664;2022-12-01T04:15:14;5.90;99.90
9907;DHT22;4992;51.628;6.664;2022-12-01T04:17:42;5.90;99.90
9907;DHT22;4992;51.628;6.664;2022-12-01T04:20:09;5.90;99.90
9907;DHT22;4992;51.628;6.664;2022-12-01T04:22:36;5.90;99.90
9907;DHT22;4992;51.628;6.664;2022-12-01T04:25:02;5.90;99.90
9907;DHT22;4992;51.628;6.664;2022-12-01T04:27:28;5.90;99.90
9907;DHT22;4992;51.628;6.664;2022-12-01T04:29:53;5.90;99.90
9907;DHT22;4992;51.628;6.664;2022-12-01T04:32:19;5.90;99.90
9907;DHT22;4992;51.628;6.664;2022-12-01T04:34:44;5.90;99.90
9907;DHT22;4992;51.628;6.664;2022-12-01T04:37:10;5.90;99.90
9907;DHT22;4992;51.628;6.664;2022-12-01T04:39:36;5.90;99.90
9907;DHT22;4992;51.628;6.664;2022-12-01T04:42:02;5.90;99.90
9907;DHT22;4992;51.628;6.664;2022-12-01T04:44:28;5.90;99.90
9907;DHT22;4992;51.628;6.664;2022-12-01T04:46:53;5.90;99.90
9907;DHT22;4992;51.628;6.664;2022-12-01T04:49:20;5.80;99.90
9907;DHT22;4992;51.628;6.664;2022-12-01T04:51:46;5.90;99.90
9907;DHT22;4992;51.628;6.664;2022-12-01T04:54:11;5.80;99.90
9907;DHT22;4992;51.628;6.664;2022-12-01T04:56:37;5.90;99.90
9907;DHT22;4992;51.628;6.664;2022-12-01T04:59:02;5.80;99.90
9907;DHT22;4992;51.628;6.664;2022-12-01T05:01:28;5.80;99.90
9907;DHT22;4992;51.628;6.664;2022-12-01T05:03:54;5.80;99.90
9907;DHT22;4992;51.628;6.664;2022-12-01T05:06:22;5.80;99.90
9907;DHT22;4992;51.628;6.664;2022-12-01T05:08:48;5.80;99.90
9907;DHT22;4992;51.628;6.664;2022-12-01T05:11:15;5.90;99.90
9907;DHT22;4992;51.628;6.664;2022-12-01T05:13:42;5.80;99.90
9907;DHT22;4992;51.628;6.664;2022-12-01T05:16:13;5.90;99.90
9907;DHT22;4992;51.628;6.664;2022-12-01T05:18:39;5.90;99.90
9907;DHT22;4992;51.628;6.664;2022-12-01T05:21:06;5.80;99.90
9907;DHT22;4992;51.628;6.664;2022-12-01T05:23:34;5.80;99.90
9907;DHT22;4992;51.628;6.664;2022-12-01T05:26:00;5.80;99.90
9907;DHT22;4992;51.628;6.664;2022-12-01T05:28:27;5.90;99.90
9907;DHT22;4992;51.628;6.664;2022-12-01T05:30:53;5.90;99.90
9907;DHT22;4992;51.628;6.664;2022-12-01T05:33:20;5.80;99.90
9907;DHT22;4992;51.628;6.664;2022-12-01T05:35:47;5.80;99.90
9907;DHT22;4992;51.628;6.664;2022-12-01T05:38:13;5.80;99.90
9907;DHT22;4992;51.628;6.664;2022-12-01T05:40:39;5.90;99.90
9907;DHT22;4992;51.628;6.664;2022-12-01T05:43:05;5.80;99.90
9907;DHT22;4992;51.628;6.664;2022-12-01T05:45:32;5.90;99.90
9907;DHT22;4992;51.628;6.664;2022-12-01T05:47:58;5.90;99.90
9907;DHT22;4992;51.628;6.664;2022-12-01T05:50:26;5.90;99.90
9907;DHT22;4992;51.628;6.664;2022-12-01T05:52:51;5.90;99.90
9907;DHT22;4992;51.628;6.664;2022-12-01T05:55:17;5.90;99.90
9907;DHT22;4992;51.628;6.664;2022-12-01T05:57:43;5.90;99.90
9907;DHT22;4992;51.628;6.664;2022-12-01T06:00:09;5.90;99.90
9907;DHT22;4992;51.628;6.664;2022-12-01T06:02:35;5.90;99.90
9907;DHT22;4992;51.628;6.664;2022-12-01T06:05:01;5.90;99.90
9907;DHT22;4992;51.628;6.664;2022-12-01T06:07:26;5.90;99.90
9907;DHT22;4992;51.628;6.664;2022-12-01T06:09:52;5.90;99.90
9907;DHT22;4992;51.628;6.664;2022-12-01T06:12:18;5.80;99.90
9907;DHT22;4992;51.628;6.664;2022-12-01T06:14:44;5.80;99.90
9907;DHT22;4992;51.628;6.664;2022-12-01T06:17:09;5.80;99.90
9907;DHT22;4992;51.628;6.664;2022-12-01T06:19:35;5.80;99.90
9907;DHT22;4992;51.628;6.664;2022-12-01T06:22:01;5.80;99.90
9907;DHT22;4992;51.628;6.664;2022-12-01T06:24:26;5.80;99.90
9907;DHT22;4992;51.628;6.664;2022-12-01T06:26:52;5.80;99.90
9907;DHT22;4992;51.628;6.664;2022-12-01T06:29:17;5.80;99.90
9907;DHT22;4992;51.628;6.664;2022-12-01T06:31:43;5.80;99.90
9907;DHT22;4992;51.628;6.664;2022-12-01T06:34:09;5.80;99.90
9907;DHT22;4992;51.628;6.664;2022-12-01T06:36:35;5.80;99.90
9907;DHT22;4992;51.628;6.664;2022-12-01T06:39:00;5.80;99.90
9907;DHT22;4992;51.628;6.664;2022-12-01T06:41:26;5.80;99.90
9907;DHT22;4992;51.628;6.664;2022-12-01T06:43:51;5.80;99.90
9907;DHT22;4992;51.628;6.664;2022-12-01T06:46:17;5.80;99.90
9907;DHT22;4992;51.628;6.664;2022-12-01T06:48:42;5.80;99.90
9907;DHT22;4992;51.628;6.664;2022-12-01T06:51:08;5.80;99.90
9907;DHT22;4992;51.628;6.664;2022-12-01T06:53:33;5.80;99.90
9907;DHT22;4992;51.628;6.664;2022-12-01T06:56:00;5.80;99.90
9907;DHT22;4992;51.628;6.664;2022-12-01T06:58:26;5.80;99.90
9907;DHT22;4992;51.628;6.664;2022-12-01T07:00:51;5.80;99.90
9907;DHT22;4992;51.628;6.664;2022-12-01T07:03:17;5.80;99.90
9907;DHT22;4992;51.628;6.664;2022-12-01T07:05:42;5.80;99.90
9907;DHT22;4992;51.628;6.664;2022-12-01T07:08:08;5.80;99.90
9907;DHT22;4992;51.628;6.664;2022-12-01T07:10:33;5.80;99.90
9907;DHT22;4992;51.628;6.664;2022-12-01T07:12:59;5.80;99.90
9907;DHT22;4992;51.628;6.664;2022-12-01T07:15:24;5.80;99.90
9907;DHT22;4992;51.628;6.664;2022-12-01T07:17:50;5.80;99.90
9907;DHT22;4992;51.628;6.664;2022-12-01T07:20:15;5.80;99.90
9907;DHT22;4992;51.628;6.664;2022-12-01T07:22:41;5.80;99.90
9907;DHT22;4992;51.628;6.664;2022-12-01T07:25:09;5.80;99.90
9907;DHT22;4992;51.628;6.664;2022-12-01T07:27:35;5.80;99.90
9907;DHT22;4992;51.628;6.664;2022-12-01T07:30:01;5.80;99.90
9907;DHT22;4992;51.628;6.664;2022-12-01T07:32:26;5.70;99.90
9907;DHT22;4992;51.628;6.664;2022-12-01T07:34:52;5.80;99.90
9907;DHT22;4992;51.628;6.664;2022-12-01T07:37:17;5.70;99.90
9907;DHT22;4992;51.628;6.664;2022-12-01T07:39:43;5.70;99.90
9907;DHT22;4992;51.628;6.664;2022-12-01T07:42:08;5.70;99.90
9907;DHT22;4992;51.628;6.664;2022-12-01T07:44:34;5.70;99.90
9907;DHT22;4992;51.628;6.664;2022-12-01T07:46:59;5.80;99.90
9907;DHT22;4992;51.628;6.664;2022-12-01T07:49:25;5.70;99.90
9907;DHT22;4992;51.628;6.664;2022-12-01T07:51:51;5.70;99.90
9907;DHT22;4992;51.628;6.664;2022-12-01T07:54:16;5.80;99.90
9907;DHT22;4992;51.628;6.664;2022-12-01T07:56:44;5.70;99.90
9907;DHT22;4992;51.628;6.664;2022-12-01T07:59:09;5.80;99.90
9907;DHT22;4992;51.628;6.664;2022-12-01T08:01:36;5.80;99.90
9907;DHT22;4992;51.628;6.664;2022-12-01T08:04:02;5.80;99.90
9907;DHT22;4992;51.628;6.664;2022-12-01T08:06:28;5.80;99.90
9907;DHT22;4992;51.628;6.664;2022-12-01T08:08:54;5.80;99.90
9907;DHT22;4992;51.628;6.664;2022-12-01T08:11:22;5.80;99.90
9907;DHT22;4992;51.628;6.664;2022-12-01T08:13:48;5.80;99.90
9907;DHT22;4992;51.628;6.664;2022-12-01T08:16:17;5.80;99.90
9907;DHT22;4992;51.628;6.664;2022-12-01T08:18:43;5.80;99.90
9907;DHT22;4992;51.628;6.664;2022-12-01T08:21:14;5.80;99.90
9907;DHT22;4992;51.628;6.664;2022-12-01T08:23:41;5.80;99.90
9907;DHT22;4992;51.628;6.664;2022-12-01T08:26:10;5.80;99.90
9907;DHT22;4992;51.628;6.664;2022-12-01T08:28:37;5.80;99.90
9907;DHT22;4992;51.628;6.664;2022-12-01T08:33:36;5.80;99.90
9907;DHT22;4992;51.628;6.664;2022-12-01T08:36:03;5.90;99.90
9907;DHT22;4992;51.628;6.664;2022-12-01T08:38:29;5.90;99.90
9907;DHT22;4992;51.628;6.664;2022-12-01T08:40:59;5.90;99.90
9907;DHT22;4992;51.628;6.664;2022-12-01T08:43:24;5.90;99.90
9907;DHT22;4992;51.628;6.664;2022-12-01T08:45:50;5.90;99.90
9907;DHT22;4992;51.628;6.664;2022-12-01T08:48:15;5.90;99.90
9907;DHT22;4992;51.628;6.664;2022-12-01T08:50:41;5.90;99.90
9907;DHT22;4992;51.628;6.664;2022-12-01T08:53:06;5.90;99.90
9907;DHT22;4992;51.628;6.664;2022-12-01T08:55:32;5.90;99.90
9907;DHT22;4992;51.628;6.664;2022-12-01T08:57:57;5.90;99.90
9907;DHT22;4992;51.628;6.664;2022-12-01T09:00:23;6.00;99.90
9907;DHT22;4992;51.628;6.664;2022-12-01T09:02:48;6.00;99.90
9907;DHT22;4992;51.628;6.664;2022-12-01T09:05:14;6.00;99.90
9907;DHT22;4992;51.628;6.664;2022-12-01T09:07:39;6.00;99.90
9907;DHT22;4992;51.628;6.664;2022-12-01T09:10:07;6.00;99.90
9907;DHT22;4992;51.628;6.664;2022-12-01T09:12:33;6.00;99.90
9907;DHT22;4992;51.628;6.664;2022-12-01T09:14:58;6.00;99.90
9907;DHT22;4992;51.628;6.664;2022-12-01T09:17:24;6.00;99.90
9907;DHT22;4992;51.628;6.664;2022-12-01T09:19:49;6.00;99.90
9907;DHT22;4992;51.628;6.664;2022-12-01T09:22:15;6.00;99.90
9907;DHT22;4992;51.628;6.664;2022-12-01T09:24:40;6.00;99.90
9907;DHT22;4992;51.628;6.664;2022-12-01T09:27:07;6.00;99.90
9907;DHT22;4992;51.628;6.664;2022-12-01T09:29:33;6.00;99.90
9907;DHT22;4992;51.628;6.664;2022-12-01T09:31:59;6.00;99.90
9907;DHT22;4992;51.628;6.664;2022-12-01T09:34:25;6.00;99.90
9907;DHT22;4992;51.628;6.664;2022-12-01T09:36:54;6.00;99.90
9907;DHT22;4992;51.628;6.664;2022-12-01T09:39:21;6.10;99.90
9907;DHT22;4992;51.628;6.664;2022-12-01T09:47:28;6.10;99.90
9907;DHT22;4992;51.628;6.664;2022-12-01T09:50:15;6.10;99.90
9907;DHT22;4992;51.628;6.664;2022-12-01T09:52:44;6.10;99.90
9907;DHT22;4992;51.628;6.664;2022-12-01T09:55:12;6.10;99.90
9907;DHT22;4992;51.628;6.664;2022-12-01T09:57:39;6.00;99.90
9907;DHT22;4992;51.628;6.664;2022-12-01T10:00:12;6.00;99.90
9907;DHT22;4992;51.628;6.664;2022-12-01T10:04:03;6.00;99.90
9907;DHT22;4992;51.628;6.664;2022-12-01T10:06:06;6.00;99.90
9907;DHT22;4992;51.628;6.664;2022-12-01T10:08:37;6.10;99.90
9907;DHT22;4992;51.628;6.664;2022-12-01T10:11:12;6.10;99.90
9907;DHT22;4992;51.628;6.664;2022-12-01T10:13:40;6.10;99.90
9907;DHT22;4992;51.628;6.664;2022-12-01T10:16:15;6.10;99.90
9907;DHT22;4992;51.628;6.664;2022-12-01T10:18:54;6.10;99.90
9907;DHT22;4992;51.628;6.664;2022-12-01T10:21:44;6.10;99.90
9907;DHT22;4992;51.628;6.664;2022-12-01T10:30:00;6.10;99.90
9907;DHT22;4992;51.628;6.664;2022-12-01T10:32:42;6.10;99.90
9907;DHT22;4992;51.628;6.664;2022-12-01T10:35:15;6.10;99.90
9907;DHT22;4992;51.628;6.664;2022-12-01T10:37:43;6.10;99.90
9907;DHT22;4992;51.628;6.664;2022-12-01T10:40:26;6.10;99.90
9907;DHT22;4992;51.628;6.664;2022-12-01T10:42:52;6.10;99.90
9907;DHT22;4992;51.628;6.664;2022-12-01T10:45:25;6.10;99.90
9907;DHT22;4992;51.628;6.664;2022-12-01T10:48:14;6.10;99.90
9907;DHT22;4992;51.628;6.664;2022-12-01T10:50:51;6.10;99.90
9907;DHT22;4992;51.628;6.664;2022-12-01T10:53:27;6.10;99.90
9907;DHT22;4992;51.628;6.664;2022-12-01T10:56:04;6.10;99.90
9907;DHT22;4992;51.628;6.664;2022-12-01T10:58:32;6.10;99.90
9907;DHT22;4992;51.628;6.664;2022-12-01T11:01:04;6.10;99.90
9907;DHT22;4992;51.628;6.664;2022-12-01T11:03:32;6.10;99.90
9907;DHT22;4992;51.628;6.664;2022-12-01T11:06:00;6.10;99.90
9907;DHT22;4992;51.628;6.664;2022-12-01T11:08:45;6.10;99.90
9907;DHT22;4992;51.628;6.664;2022-12-01T11:11:38;6.10;99.90
9907;DHT22;4992;51.628;6.664;2022-12-01T11:14:20;6.10;99.90
9907;DHT22;4992;51.628;6.664;2022-12-01T11:16:48;6.10;99.90
9907;DHT22;4992;51.628;6.664;2022-12-01T11:19:33;6.10;99.90
9907;DHT22;4992;51.628;6.664;2022-12-01T11:22:25;6.10;99.90
9907;DHT22;4992;51.628;6.664;2022-12-01T11:24:57;6.10;99.90
9907;DHT22;4992;51.628;6.664;2022-12-01T11:27:29;6.10;99.90
9907;DHT22;4992;51.628;6.664;2022-12-01T11:30:07;6.10;99.90
9907;DHT22;4992;51.628;6.664;2022-12-01T11:32:50;6.00;99.90
9907;DHT22;4992;51.628;6.664;2022-12-01T11:35:19;6.00;99.90
9907;DHT22;4992;51.628;6.664;2022-12-01T11:37:48;6.10;99.90
9907;DHT22;4992;51.628;6.664;2022-12-01T11:40:22;6.10;99.90
9907;DHT22;4992;51.628;6.664;2022-12-01T11:42:51;6.10;99.90
9907;DHT22;4992;51.628;6.664;2022-12-01T11:50:39;6.10;99.90
9907;DHT22;4992;51.628;6.664;2022-12-01T11:53:30;6.10;99.90
9907;DHT22;4992;51.628;6.664;2022-12-01T11:56:21;6.10;99.90
9907;DHT22;4992;51.628;6.664;2022-12-01T12:15:51;6.20;99.90
9907;DHT22;4992;51.628;6.664;2022-12-01T12:24:27;6.20;99.90
9907;DHT22;4992;51.628;6.664;2022-12-01T12:27:17;6.20;99.90
9907;DHT22;4992;51.628;6.664;2022-12-01T12:30:23;6.20;99.90
9907;DHT22;4992;51.628;6.664;2022-12-01T12:33:12;6.20;99.90
9907;DHT22;4992;51.628;6.664;2022-12-01T12:36:03;6.20;99.90
9907;DHT22;4992;51.628;6.664;2022-12-01T12:38:38;6.20;99.90
9907;DHT22;4992;51.628;6.664;2022-12-01T12:41:10;6.20;99.90
9907;DHT22;4992;51.628;6.664;2022-12-01T12:51:21;6.20;99.90
9907;DHT22;4992;51.628;6.664;2022-12-01T12:56:36;6.20;99.90
9907;DHT22;4992;51.628;6.664;2022-12-01T12:59:50;6.20;99.90
9907;DHT22;4992;51.628;6.664;2022-12-01T13:02:14;6.20;99.90
9907;DHT22;4992;51.628;6.664;2022-12-01T13:08:00;6.20;99.90
9907;DHT22;4992;51.628;6.664;2022-12-01T13:10:36;6.20;99.90
9907;DHT22;4992;51.628;6.664;2022-12-01T13:13:31;6.30;99.90
9907;DHT22;4992;51.628;6.664;2022-12-01T13:15:59;6.30;99.90
9907;DHT22;4992;51.628;6.664;2022-12-01T13:18:46;6.20;99.90
9907;DHT22;4992;51.628;6.664;2022-12-01T13:21:16;6.30;99.90
9907;DHT22;4992;51.628;6.664;2022-12-01T13:23:44;6.20;99.90
9907;DHT22;4992;51.628;6.664;2022-12-01T13:26:10;6.20;99.90
9907;DHT22;4992;51.628;6.664;2022-12-01T13:28:53;6.20;99.90
9907;DHT22;4992;51.628;6.664;2022-12-01T13:31:20;6.20;99.90
9907;DHT22;4992;51.628;6.664;2022-12-01T13:34:01;6.20;99.90
9907;DHT22;4992;51.628;6.664;2022-12-01T13:36:28;6.20;99.90
9907;DHT22;4992;51.628;6.664;2022-12-01T13:39:06;6.20;99.90
9907;DHT22;4992;51.628;6.664;2022-12-01T13:41:39;6.20;99.90
9907;DHT22;4992;51.628;6.664;2022-12-01T13:44:19;6.20;99.90
9907;DHT22;4992;51.628;6.664;2022-12-01T13:49:48;6.20;99.90
9907;DHT22;4992;51.628;6.664;2022-12-01T14:00:23;6.10;99.90
9907;DHT22;4992;51.628;6.664;2022-12-01T14:08:30;6.10;99.90
9907;DHT22;4992;51.628;6.664;2022-12-01T14:11:03;6.10;99.90
9907;DHT22;4992;51.628;6.664;2022-12-01T14:13:30;6.10;99.90
9907;DHT22;4992;51.628;6.664;2022-12-01T14:15:59;6.10;99.90
9907;DHT22;4992;51.628;6.664;2022-12-01T14:20:53;6.10;99.90
9907;DHT22;4992;51.628;6.664;2022-12-01T14:23:26;6.10;99.90
9907;DHT22;4992;51.628;6.664;2022-12-01T14:26:18;6.10;99.90
9907;DHT22;4992;51.628;6.664;2022-12-01T14:34:09;6.10;99.90
9907;DHT22;4992;51.628;6.664;2022-12-01T14:39:26;6.10;99.90
9907;DHT22;4992;51.628;6.664;2022-12-01T14:41:56;6.10;99.90
9907;DHT22;4992;51.628;6.664;2022-12-01T14:52:16;6.00;99.90
9907;DHT22;4992;51.628;6.664;2022-12-01T14:54:46;6.00;99.90
9907;DHT22;4992;51.628;6.664;2022-12-01T14:57:16;6.00;99.90
9907;DHT22;4992;51.628;6.664;2022-12-01T14:59:43;6.00;99.90
9907;DHT22;4992;51.628;6.664;2022-12-01T15:02:09;6.00;99.90
9907;DHT22;4992;51.628;6.664;2022-12-01T15:05:08;6.00;99.90
9907;DHT22;4992;51.628;6.664;2022-12-01T15:07:40;6.00;99.90
9907;DHT22;4992;51.628;6.664;2022-12-01T15:10:28;5.90;99.90
9907;DHT22;4992;51.628;6.664;2022-12-01T15:13:18;5.90;99.90
9907;DHT22;4992;51.628;6.664;2022-12-01T15:15:50;5.90;99.90
9907;DHT22;4992;51.628;6.664;2022-12-01T15:18:42;5.90;99.90
9907;DHT22;4992;51.628;6.664;2022-12-01T15:21:22;5.90;99.90
9907;DHT22;4992;51.628;6.664;2022-12-01T15:24:24;5.90;99.90
9907;DHT22;4992;51.628;6.664;2022-12-01T15:26:52;5.90;99.90
9907;DHT22;4992;51.628;6.664;2022-12-01T15:29:24;5.90;99.90
9907;DHT22;4992;51.628;6.664;2022-12-01T15:31:56;5.90;99.90
9907;DHT22;4992;51.628;6.664;2022-12-01T15:34:28;5.80;99.90
9907;DHT22;4992;51.628;6.664;2022-12-01T15:36:55;5.80;99.90
9907;DHT22;4992;51.628;6.664;2022-12-01T15:39:29;5.80;99.90
9907;DHT22;4992;51.628;6.664;2022-12-01T15:41:55;5.80;99.90
9907;DHT22;4992;51.628;6.664;2022-12-01T15:44:27;5.80;99.90
9907;DHT22;4992;51.628;6.664;2022-12-01T15:46:53;5.80;99.90
9907;DHT22;4992;51.628;6.664;2022-12-01T15:49:29;5.80;99.90
9907;DHT22;4992;51.628;6.664;2022-12-01T15:52:11;5.70;99.90
9907;DHT22;4992;51.628;6.664;2022-12-01T15:54:37;5.70;99.90
9907;DHT22;4992;51.628;6.664;2022-12-01T15:57:03;5.70;99.90
9907;DHT22;4992;51.628;6.664;2022-12-01T15:59:38;5.70;99.90
9907;DHT22;4992;51.628;6.664;2022-12-01T16:02:29;5.70;99.90
9907;DHT22;4992;51.628;6.664;2022-12-01T16:05:17;5.70;99.90
9907;DHT22;4992;51.628;6.664;2022-12-01T16:07:43;5.70;99.90
9907;DHT22;4992;51.628;6.664;2022-12-01T16:12:51;5.70;99.90
9907;DHT22;4992;51.628;6.664;2022-12-01T16:15:18;5.70;99.90
9907;DHT22;4992;51.628;6.664;2022-12-01T16:17:47;5.70;99.90
9907;DHT22;4992;51.628;6.664;2022-12-01T16:20:31;5.70;99.90
9907;DHT22;4992;51.628;6.664;2022-12-01T16:23:02;5.60;99.90
9907;DHT22;4992;51.628;6.664;2022-12-01T16:28:02;5.60;99.90
9907;DHT22;4992;51.628;6.664;2022-12-01T16:30:36;5.60;99.90
9907;DHT22;4992;51.628;6.664;2022-12-01T16:33:05;5.60;99.90
9907;DHT22;4992;51.628;6.664;2022-12-01T16:35:37;5.60;99.90
9907;DHT22;4992;51.628;6.664;2022-12-01T16:38:14;5.60;99.90
9907;DHT22;4992;51.628;6.664;2022-12-01T16:40:43;5.60;99.90
9907;DHT22;4992;51.628;6.664;2022-12-01T16:43:13;5.60;99.90
9907;DHT22;4992;51.628;6.664;2022-12-01T16:45:40;5.60;99.90
9907;DHT22;4992;51.628;6.664;2022-12-01T16:48:05;5.60;99.90
9907;DHT22;4992;51.628;6.664;2022-12-01T16:50:31;5.50;99.90
9907;DHT22;4992;51.628;6.664;2022-12-01T16:52:56;5.50;99.90
9907;DHT22;4992;51.628;6.664;2022-12-01T16:55:40;5.50;99.90
9907;DHT22;4992;51.628;6.664;2022-12-01T16:58:06;5.50;99.90
9907;DHT22;4992;51.628;6.664;2022-12-01T17:00:32;5.50;99.90
9907;DHT22;4992;51.628;6.664;2022-12-01T17:02:58;5.50;99.90
9907;DHT22;4992;51.628;6.664;2022-12-01T17:05:24;5.50;99.90
9907;DHT22;4992;51.628;6.664;2022-12-01T17:07:49;5.50;99.90
9907;DHT22;4992;51.628;6.664;2022-12-01T17:10:15;5.50;99.90
9907;DHT22;4992;51.628;6.664;2022-12-01T17:12:41;5.50;99.90
9907;DHT22;4992;51.628;6.664;2022-12-01T17:15:07;5.50;99.90
9907;DHT22;4992;51.628;6.664;2022-12-01T17:17:33;5.50;99.90
9907;DHT22;4992;51.628;6.664;2022-12-01T17:19:58;5.50;99.90
9907;DHT22;4992;51.628;6.664;2022-12-01T17:22:24;5.50;99.90
9907;DHT22;4992;51.628;6.664;2022-12-01T17:24:50;5.50;99.90
9907;DHT22;4992;51.628;6.664;2022-12-01T17:27:15;5.50;99.90
9907;DHT22;4992;51.628;6.664;2022-12-01T17:29:41;5.50;99.90
9907;DHT22;4992;51.628;6.664;2022-12-01T17:32:07;5.50;99.90
9907;DHT22;4992;51.628;6.664;2022-12-01T17:34:33;5.50;99.90
9907;DHT22;4992;51.628;6.664;2022-12-01T17:36:59;5.50;99.90
9907;DHT22;4992;51.628;6.664;2022-12-01T17:39:24;5.50;99.90
9907;DHT22;4992;51.628;6.664;2022-12-01T17:41:50;5.50;99.90
9907;DHT22;4992;51.628;6.664;2022-12-01T17:44:17;5.50;99.90
9907;DHT22;4992;51.628;6.664;2022-12-01T17:46:43;5.40;99.90
9907;DHT22;4992;51.628;6.664;2022-12-01T17:49:08;5.40;99.90
9907;DHT22;4992;51.628;6.664;2022-12-01T17:51:35;5.40;99.90
9907;DHT22;4992;51.628;6.664;2022-12-01T17:54:01;5.40;99.90
9907;DHT22;4992;51.628;6.664;2022-12-01T17:56:27;5.40;99.90
9907;DHT22;4992;51.628;6.664;2022-12-01T17:58:52;5.40;99.90
9907;DHT22;4992;51.628;6.664;2022-12-01T18:01:19;5.40;99.90
9907;DHT22;4992;51.628;6.664;2022-12-01T18:03:45;5.40;99.90
9907;DHT22;4992;51.628;6.664;2022-12-01T18:06:11;5.40;99.90
9907;DHT22;4992;51.628;6.664;2022-12-01T18:08:37;5.40;99.90
9907;DHT22;4992;51.628;6.664;2022-12-01T18:11:05;5.40;99.90
9907;DHT22;4992;51.628;6.664;2022-12-01T18:13:38;5.40;99.90
9907;DHT22;4992;51.628;6.664;2022-12-01T18:16:06;5.40;99.90
9907;DHT22;4992;51.628;6.664;2022-12-01T18:18:32;5.40;99.90
9907;DHT22;4992;51.628;6.664;2022-12-01T18:20:57;5.40;99.90
9907;DHT22;4992;51.628;6.664;2022-12-01T18:23:23;5.40;99.90
9907;DHT22;4992;51.628;6.664;2022-12-01T18:25:48;5.40;99.90
9907;DHT22;4992;51.628;6.664;2022-12-01T18:28:14;5.40;99.90
9907;DHT22;4992;51.628;6.664;2022-12-01T18:30:39;5.40;99.90